sensor_id;sensor_type;location;lat;lon;timestamp;P1;durP1;ratioP1;P2;durP2;ratioP2
17361;SDS011;8798;51.938;4.348;2023-06-14T00:00:24;3.03;;;1.88;;
17361;SDS011;8798;51.938;4.348;2023-06-14T00:02:54;3.38;;;1.80;;
17361;SDS011;8798;51.938;4.348;2023-06-14T00:05:22;5.15;;;1.92;;
17361;SDS011;8798;51.938;4.348;2023-06-14T00:07:50;3.08;;;2.00;;
17361;SDS011;8798;51.938;4.348;2023-06-14T00:10:21;4.07;;;2.00;;
17361;SDS011;8798;51.938;4.348;2023-06-14T00:12:49;4.18;;;2.00;;
17361;SDS011;8798;51.938;4.348;2023-06-14T00:15:16;5.22;;;2.30;;
17361;SDS011;8798;51.938;4.348;2023-06-14T00:17:44;5.85;;;1.95;;
17361;SDS011;8798;51.938;4.348;2023-06-14T00:20:21;2.78;;;1.85;;
17361;SDS011;8798;51.938;4.348;2023-06-14T00:22:54;4.03;;;2.05;;
17361;SDS011;8798;51.938;4.348;2023-06-14T00:25:26;2.50;;;1.67;;
17361;SDS011;8798;51.938;4.348;2023-06-14T00:27:58;3.33;;;2.00;;
17361;SDS011;8798;51.938;4.348;2023-06-14T00:30:27;6.25;;;1.90;;
17361;SDS011;8798;51.938;4.348;2023-06-14T00:32:58;4.38;;;2.00;;
17361;SDS011;8798;51.938;4.348;2023-06-14T00:35:26;3.20;;;2.15;;
17361;SDS011;8798;51.938;4.348;2023-06-14T00:37:54;3.92;;;2.10;;
17361;SDS011;8798;51.938;4.348;2023-06-14T00:40:27;2.88;;;1.98;;
17361;SDS011;8798;51.938;4.348;2023-06-14T00:42:57;2.53;;;2.20;;
17361;SDS011;8798;51.938;4.348;2023-06-14T00:45:26;2.70;;;1.77;;
17361;SDS011;8798;51.938;4.348;2023-06-14T00:47:57;3.67;;;2.30;;
17361;SDS011;8798;51.938;4.348;2023-06-14T00:50:29;4.40;;;2.10;;
17361;SDS011;8798;51.938;4.348;2023-06-14T00:52:59;4.70;;;2.40;;
17361;SDS011;8798;51.938;4.348;2023-06-14T00:55:29;2.90;;;2.05;;
17361;SDS011;8798;51.938;4.348;2023-06-14T00:57:59;5.65;;;1.80;;
17361;SDS011;8798;51.938;4.348;2023-06-14T01:00:27;4.90;;;2.17;;
17361;SDS011;8798;51.938;4.348;2023-06-14T01:02:56;4.43;;;2.50;;
17361;SDS011;8798;51.938;4.348;2023-06-14T01:05:29;3.80;;;2.13;;
17361;SDS011;8798;51.938;4.348;2023-06-14T01:08:09;2.97;;;2.00;;
17361;SDS011;8798;51.938;4.348;2023-06-14T01:10:50;3.15;;;2.08;;
17361;SDS011;8798;51.938;4.348;2023-06-14T01:13:27;3.92;;;2.13;;
17361;SDS011;8798;51.938;4.348;2023-06-14T01:15:58;4.28;;;2.30;;
17361;SDS011;8798;51.938;4.348;2023-06-14T01:18:27;4.65;;;2.40;;
17361;SDS011;8798;51.938;4.348;2023-06-14T01:20:56;4.60;;;2.03;;
17361;SDS011;8798;51.938;4.348;2023-06-14T01:23:30;4.07;;;2.00;;
17361;SDS011;8798;51.938;4.348;2023-06-14T01:25:59;3.00;;;2.13;;
17361;SDS011;8798;51.938;4.348;2023-06-14T01:28:30;4.60;;;2.05;;
17361;SDS011;8798;51.938;4.348;2023-06-14T01:31:03;3.75;;;2.30;;
17361;SDS011;8798;51.938;4.348;2023-06-14T01:33:33;6.25;;;2.05;;
17361;SDS011;8798;51.938;4.348;2023-06-14T01:36:02;5.57;;;2.58;;
17361;SDS011;8798;51.938;4.348;2023-06-14T01:38:39;4.00;;;2.53;;
17361;SDS011;8798;51.938;4.348;2023-06-14T01:41:18;4.90;;;2.60;;
17361;SDS011;8798;51.938;4.348;2023-06-14T01:43:48;6.60;;;2.50;;
17361;SDS011;8798;51.938;4.348;2023-06-14T01:46:18;2.95;;;2.17;;
17361;SDS011;8798;51.938;4.348;2023-06-14T01:48:47;4.72;;;2.47;;
17361;SDS011;8798;51.938;4.348;2023-06-14T01:51:16;3.45;;;2.30;;
17361;SDS011;8798;51.938;4.348;2023-06-14T01:53:45;4.25;;;2.30;;
17361;SDS011;8798;51.938;4.348;2023-06-14T01:56:13;5.07;;;2.38;;
17361;SDS011;8798;51.938;4.348;2023-06-14T01:58:41;8.48;;;2.35;;
17361;SDS011;8798;51.938;4.348;2023-06-14T02:01:10;2.88;;;2.20;;
17361;SDS011;8798;51.938;4.348;2023-06-14T02:03:39;5.07;;;2.67;;
17361;SDS011;8798;51.938;4.348;2023-06-14T02:06:07;4.68;;;2.47;;
17361;SDS011;8798;51.938;4.348;2023-06-14T02:08:37;7.18;;;2.33;;
17361;SDS011;8798;51.938;4.348;2023-06-14T02:11:08;2.85;;;1.92;;
17361;SDS011;8798;51.938;4.348;2023-06-14T02:13:37;5.40;;;2.80;;
17361;SDS011;8798;51.938;4.348;2023-06-14T02:16:05;5.53;;;2.75;;
17361;SDS011;8798;51.938;4.348;2023-06-14T02:18:34;4.03;;;2.42;;
17361;SDS011;8798;51.938;4.348;2023-06-14T02:21:05;5.45;;;2.60;;
17361;SDS011;8798;51.938;4.348;2023-06-14T02:23:35;4.28;;;2.50;;
17361;SDS011;8798;51.938;4.348;2023-06-14T02:26:04;3.90;;;2.47;;
17361;SDS011;8798;51.938;4.348;2023-06-14T02:28:38;3.90;;;2.00;;
17361;SDS011;8798;51.938;4.348;2023-06-14T02:31:07;4.22;;;2.25;;
17361;SDS011;8798;51.938;4.348;2023-06-14T02:33:36;8.67;;;2.67;;
17361;SDS011;8798;51.938;4.348;2023-06-14T02:36:04;7.28;;;2.55;;
17361;SDS011;8798;51.938;4.348;2023-06-14T02:38:36;3.50;;;2.30;;
17361;SDS011;8798;51.938;4.348;2023-06-14T02:41:09;3.88;;;2.63;;
17361;SDS011;8798;51.938;4.348;2023-06-14T02:43:39;5.70;;;2.47;;
17361;SDS011;8798;51.938;4.348;2023-06-14T02:46:07;3.83;;;2.47;;
17361;SDS011;8798;51.938;4.348;2023-06-14T02:48:38;4.50;;;2.20;;
17361;SDS011;8798;51.938;4.348;2023-06-14T02:51:07;3.80;;;2.27;;
17361;SDS011;8798;51.938;4.348;2023-06-14T02:53:40;3.17;;;2.30;;
17361;SDS011;8798;51.938;4.348;2023-06-14T02:56:08;6.10;;;2.80;;
17361;SDS011;8798;51.938;4.348;2023-06-14T02:58:36;3.17;;;2.10;;
17361;SDS011;8798;51.938;4.348;2023-06-14T03:01:10;5.13;;;2.67;;
17361;SDS011;8798;51.938;4.348;2023-06-14T03:03:48;3.50;;;2.17;;
17361;SDS011;8798;51.938;4.348;2023-06-14T03:06:19;3.40;;;2.20;;
17361;SDS011;8798;51.938;4.348;2023-06-14T03:08:53;5.17;;;2.43;;
17361;SDS011;8798;51.938;4.348;2023-06-14T03:11:27;4.57;;;2.47;;
17361;SDS011;8798;51.938;4.348;2023-06-14T03:13:56;3.53;;;2.27;;
17361;SDS011;8798;51.938;4.348;2023-06-14T03:16:26;3.17;;;2.40;;
17361;SDS011;8798;51.938;4.348;2023-06-14T03:18:59;3.53;;;2.50;;
17361;SDS011;8798;51.938;4.348;2023-06-14T03:21:27;7.37;;;2.57;;
17361;SDS011;8798;51.938;4.348;2023-06-14T03:23:56;6.80;;;2.30;;
17361;SDS011;8798;51.938;4.348;2023-06-14T03:26:27;3.53;;;2.27;;
17361;SDS011;8798;51.938;4.348;2023-06-14T03:28:58;4.93;;;2.50;;
17361;SDS011;8798;51.938;4.348;2023-06-14T03:31:28;7.20;;;2.50;;
17361;SDS011;8798;51.938;4.348;2023-06-14T03:33:59;5.00;;;2.63;;
17361;SDS011;8798;51.938;4.348;2023-06-14T03:36:28;4.63;;;2.30;;
17361;SDS011;8798;51.938;4.348;2023-06-14T03:38:56;7.17;;;2.30;;
17361;SDS011;8798;51.938;4.348;2023-06-14T03:41:24;4.03;;;2.30;;
17361;SDS011;8798;51.938;4.348;2023-06-14T03:43:55;5.07;;;2.50;;
17361;SDS011;8798;51.938;4.348;2023-06-14T03:46:28;3.60;;;2.37;;
17361;SDS011;8798;51.938;4.348;2023-06-14T03:48:56;6.47;;;2.13;;
17361;SDS011;8798;51.938;4.348;2023-06-14T03:51:28;5.37;;;2.30;;
17361;SDS011;8798;51.938;4.348;2023-06-14T03:53:57;4.57;;;2.40;;
17361;SDS011;8798;51.938;4.348;2023-06-14T03:56:46;6.10;;;2.50;;
17361;SDS011;8798;51.938;4.348;2023-06-14T03:59:14;6.80;;;2.53;;
17361;SDS011;8798;51.938;4.348;2023-06-14T04:01:43;3.77;;;2.53;;
17361;SDS011;8798;51.938;4.348;2023-06-14T04:04:14;4.47;;;2.50;;
17361;SDS011;8798;51.938;4.348;2023-06-14T04:06:46;4.33;;;2.10;;
17361;SDS011;8798;51.938;4.348;2023-06-14T04:09:16;4.13;;;2.20;;
17361;SDS011;8798;51.938;4.348;2023-06-14T04:11:45;7.37;;;2.50;;
17361;SDS011;8798;51.938;4.348;2023-06-14T04:14:18;4.63;;;2.47;;
17361;SDS011;8798;51.938;4.348;2023-06-14T04:16:48;4.40;;;2.20;;
17361;SDS011;8798;51.938;4.348;2023-06-14T04:19:17;3.80;;;1.97;;
17361;SDS011;8798;51.938;4.348;2023-06-14T04:21:45;7.63;;;2.37;;
17361;SDS011;8798;51.938;4.348;2023-06-14T04:24:13;4.33;;;2.30;;
17361;SDS011;8798;51.938;4.348;2023-06-14T04:26:42;3.53;;;2.07;;
17361;SDS011;8798;51.938;4.348;2023-06-14T04:29:13;7.67;;;2.47;;
17361;SDS011;8798;51.938;4.348;2023-06-14T04:31:43;4.37;;;2.40;;
17361;SDS011;8798;51.938;4.348;2023-06-14T04:34:12;3.27;;;2.10;;
17361;SDS011;8798;51.938;4.348;2023-06-14T04:36:43;7.63;;;2.63;;
17361;SDS011;8798;51.938;4.348;2023-06-14T04:39:15;5.97;;;2.40;;
17361;SDS011;8798;51.938;4.348;2023-06-14T04:41:47;3.30;;;2.10;;
17361;SDS011;8798;51.938;4.348;2023-06-14T04:44:22;3.30;;;2.30;;
17361;SDS011;8798;51.938;4.348;2023-06-14T04:46:57;3.83;;;2.00;;
17361;SDS011;8798;51.938;4.348;2023-06-14T04:49:28;8.13;;;2.43;;
17361;SDS011;8798;51.938;4.348;2023-06-14T04:51:59;4.60;;;2.37;;
17361;SDS011;8798;51.938;4.348;2023-06-14T04:54:35;5.93;;;2.43;;
17361;SDS011;8798;51.938;4.348;2023-06-14T04:57:09;4.00;;;2.27;;
17361;SDS011;8798;51.938;4.348;2023-06-14T04:59:40;8.27;;;2.57;;
17361;SDS011;8798;51.938;4.348;2023-06-14T05:02:16;5.97;;;2.20;;
17361;SDS011;8798;51.938;4.348;2023-06-14T05:04:51;7.43;;;2.53;;
17361;SDS011;8798;51.938;4.348;2023-06-14T05:07:23;3.70;;;2.23;;
17361;SDS011;8798;51.938;4.348;2023-06-14T05:10:02;6.43;;;2.40;;
17361;SDS011;8798;51.938;4.348;2023-06-14T05:12:31;3.57;;;2.17;;
17361;SDS011;8798;51.938;4.348;2023-06-14T05:15:00;5.63;;;2.17;;
17361;SDS011;8798;51.938;4.348;2023-06-14T05:17:28;4.60;;;2.40;;
17361;SDS011;8798;51.938;4.348;2023-06-14T05:19:59;3.60;;;2.20;;
17361;SDS011;8798;51.938;4.348;2023-06-14T05:22:27;6.80;;;2.30;;
17361;SDS011;8798;51.938;4.348;2023-06-14T05:24:58;4.30;;;2.60;;
17361;SDS011;8798;51.938;4.348;2023-06-14T05:27:26;5.40;;;2.30;;
17361;SDS011;8798;51.938;4.348;2023-06-14T05:29:59;4.53;;;2.00;;
17361;SDS011;8798;51.938;4.348;2023-06-14T05:32:27;6.17;;;2.40;;
17361;SDS011;8798;51.938;4.348;2023-06-14T05:35:00;4.70;;;2.40;;
17361;SDS011;8798;51.938;4.348;2023-06-14T05:37:28;4.43;;;1.90;;
17361;SDS011;8798;51.938;4.348;2023-06-14T05:39:58;6.03;;;2.17;;
17361;SDS011;8798;51.938;4.348;2023-06-14T05:42:27;6.93;;;2.27;;
17361;SDS011;8798;51.938;4.348;2023-06-14T05:44:56;8.67;;;2.40;;
17361;SDS011;8798;51.938;4.348;2023-06-14T05:47:24;4.73;;;2.20;;
17361;SDS011;8798;51.938;4.348;2023-06-14T05:52:39;5.10;;;2.30;;
17361;SDS011;8798;51.938;4.348;2023-06-14T05:55:07;5.90;;;2.03;;
17361;SDS011;8798;51.938;4.348;2023-06-14T05:57:40;6.43;;;2.40;;
17361;SDS011;8798;51.938;4.348;2023-06-14T06:00:10;5.57;;;2.30;;
17361;SDS011;8798;51.938;4.348;2023-06-14T06:02:41;3.40;;;2.13;;
17361;SDS011;8798;51.938;4.348;2023-06-14T06:05:17;4.63;;;2.00;;
17361;SDS011;8798;51.938;4.348;2023-06-14T06:07:48;2.67;;;1.97;;
17361;SDS011;8798;51.938;4.348;2023-06-14T06:10:17;6.80;;;2.30;;
17361;SDS011;8798;51.938;4.348;2023-06-14T06:12:45;5.97;;;2.60;;
17361;SDS011;8798;51.938;4.348;2023-06-14T06:15:16;4.23;;;2.30;;
17361;SDS011;8798;51.938;4.348;2023-06-14T06:17:50;4.80;;;2.10;;
17361;SDS011;8798;51.938;4.348;2023-06-14T06:20:24;5.17;;;2.40;;
17361;SDS011;8798;51.938;4.348;2023-06-14T06:22:59;4.90;;;2.27;;
17361;SDS011;8798;51.938;4.348;2023-06-14T06:25:27;3.50;;;1.87;;
17361;SDS011;8798;51.938;4.348;2023-06-14T06:27:58;6.43;;;2.37;;
17361;SDS011;8798;51.938;4.348;2023-06-14T06:30:26;6.80;;;2.30;;
17361;SDS011;8798;51.938;4.348;2023-06-14T06:32:58;6.07;;;1.93;;
17361;SDS011;8798;51.938;4.348;2023-06-14T06:35:28;3.40;;;2.00;;
17361;SDS011;8798;51.938;4.348;2023-06-14T06:37:58;3.13;;;1.97;;
17361;SDS011;8798;51.938;4.348;2023-06-14T06:40:28;4.87;;;2.30;;
17361;SDS011;8798;51.938;4.348;2023-06-14T06:42:59;6.13;;;2.00;;
17361;SDS011;8798;51.938;4.348;2023-06-14T06:45:29;3.27;;;1.77;;
17361;SDS011;8798;51.938;4.348;2023-06-14T06:47:58;10.13;;;2.50;;
17361;SDS011;8798;51.938;4.348;2023-06-14T06:50:31;4.33;;;1.93;;
17361;SDS011;8798;51.938;4.348;2023-06-14T06:52:59;3.13;;;2.00;;
17361;SDS011;8798;51.938;4.348;2023-06-14T06:55:28;6.73;;;2.10;;
17361;SDS011;8798;51.938;4.348;2023-06-14T06:57:57;6.57;;;2.40;;
17361;SDS011;8798;51.938;4.348;2023-06-14T07:00:26;4.67;;;2.30;;
17361;SDS011;8798;51.938;4.348;2023-06-14T07:02:57;7.00;;;2.10;;
17361;SDS011;8798;51.938;4.348;2023-06-14T07:05:28;3.42;;;1.83;;
17361;SDS011;8798;51.938;4.348;2023-06-14T07:07:59;6.53;;;2.43;;
17361;SDS011;8798;51.938;4.348;2023-06-14T07:10:27;3.92;;;1.90;;
17361;SDS011;8798;51.938;4.348;2023-06-14T07:12:55;3.63;;;2.07;;
17361;SDS011;8798;51.938;4.348;2023-06-14T07:15:23;7.17;;;2.30;;
17361;SDS011;8798;51.938;4.348;2023-06-14T07:17:55;4.18;;;2.50;;
17361;SDS011;8798;51.938;4.348;2023-06-14T07:20:29;5.00;;;2.27;;
17361;SDS011;8798;51.938;4.348;2023-06-14T07:23:00;3.40;;;2.20;;
17361;SDS011;8798;51.938;4.348;2023-06-14T07:25:29;6.03;;;2.33;;
17361;SDS011;8798;51.938;4.348;2023-06-14T07:27:58;3.97;;;2.10;;
17361;SDS011;8798;51.938;4.348;2023-06-14T07:30:27;5.13;;;1.93;;
17361;SDS011;8798;51.938;4.348;2023-06-14T07:32:56;4.93;;;2.33;;
17361;SDS011;8798;51.938;4.348;2023-06-14T07:35:24;2.97;;;2.07;;
17361;SDS011;8798;51.938;4.348;2023-06-14T07:37:52;3.30;;;1.97;;
17361;SDS011;8798;51.938;4.348;2023-06-14T07:40:21;3.23;;;1.77;;
17361;SDS011;8798;51.938;4.348;2023-06-14T07:42:49;3.58;;;2.20;;
17361;SDS011;8798;51.938;4.348;2023-06-14T07:45:17;3.23;;;2.10;;
17361;SDS011;8798;51.938;4.348;2023-06-14T07:47:46;5.27;;;2.30;;
17361;SDS011;8798;51.938;4.348;2023-06-14T07:50:13;3.30;;;2.07;;
17361;SDS011;8798;51.938;4.348;2023-06-14T07:52:45;4.80;;;2.43;;
17361;SDS011;8798;51.938;4.348;2023-06-14T07:55:13;7.70;;;2.22;;
17361;SDS011;8798;51.938;4.348;2023-06-14T07:57:50;3.13;;;2.03;;
17361;SDS011;8798;51.938;4.348;2023-06-14T08:00:20;4.53;;;1.90;;
17361;SDS011;8798;51.938;4.348;2023-06-14T08:02:48;6.77;;;2.63;;
17361;SDS011;8798;51.938;4.348;2023-06-14T08:05:20;4.05;;;2.15;;
17361;SDS011;8798;51.938;4.348;2023-06-14T08:07:49;5.25;;;2.30;;
17361;SDS011;8798;51.938;4.348;2023-06-14T08:10:17;4.85;;;2.45;;
17361;SDS011;8798;51.938;4.348;2023-06-14T08:12:46;4.43;;;2.33;;
17361;SDS011;8798;51.938;4.348;2023-06-14T08:15:20;3.90;;;2.50;;
17361;SDS011;8798;51.938;4.348;2023-06-14T08:17:51;3.72;;;2.50;;
17361;SDS011;8798;51.938;4.348;2023-06-14T08:20:19;6.53;;;2.50;;
17361;SDS011;8798;51.938;4.348;2023-06-14T08:22:47;4.38;;;2.50;;
17361;SDS011;8798;51.938;4.348;2023-06-14T08:27:58;3.38;;;2.10;;
17361;SDS011;8798;51.938;4.348;2023-06-14T08:30:31;4.72;;;2.45;;
17361;SDS011;8798;51.938;4.348;2023-06-14T08:32:59;4.97;;;2.80;;
17361;SDS011;8798;51.938;4.348;2023-06-14T08:35:41;3.65;;;2.38;;
17361;SDS011;8798;51.938;4.348;2023-06-14T08:38:10;4.68;;;2.42;;
17361;SDS011;8798;51.938;4.348;2023-06-14T08:40:41;6.13;;;2.55;;
17361;SDS011;8798;51.938;4.348;2023-06-14T08:43:09;6.30;;;2.78;;
17361;SDS011;8798;51.938;4.348;2023-06-14T08:45:40;8.40;;;2.72;;
17361;SDS011;8798;51.938;4.348;2023-06-14T08:48:09;4.82;;;2.42;;
17361;SDS011;8798;51.938;4.348;2023-06-14T08:50:39;4.55;;;2.40;;
17361;SDS011;8798;51.938;4.348;2023-06-14T08:53:09;4.97;;;2.20;;
17361;SDS011;8798;51.938;4.348;2023-06-14T08:55:46;6.43;;;2.72;;
17361;SDS011;8798;51.938;4.348;2023-06-14T08:58:15;6.45;;;2.30;;
17361;SDS011;8798;51.938;4.348;2023-06-14T09:00:50;2.55;;;2.00;;
17361;SDS011;8798;51.938;4.348;2023-06-14T09:03:19;4.32;;;2.53;;
17361;SDS011;8798;51.938;4.348;2023-06-14T09:05:50;3.55;;;2.13;;
17361;SDS011;8798;51.938;4.348;2023-06-14T09:08:20;11.88;;;3.00;;
17361;SDS011;8798;51.938;4.348;2023-06-14T09:10:50;6.13;;;2.20;;
17361;SDS011;8798;51.938;4.348;2023-06-14T09:13:18;4.70;;;2.30;;
17361;SDS011;8798;51.938;4.348;2023-06-14T09:15:50;3.63;;;2.40;;
17361;SDS011;8798;51.938;4.348;2023-06-14T09:18:19;5.45;;;2.42;;
17361;SDS011;8798;51.938;4.348;2023-06-14T09:20:51;5.80;;;2.30;;
17361;SDS011;8798;51.938;4.348;2023-06-14T09:23:30;2.78;;;2.10;;
17361;SDS011;8798;51.938;4.348;2023-06-14T09:26:06;5.03;;;2.40;;
17361;SDS011;8798;51.938;4.348;2023-06-14T09:28:40;2.28;;;1.63;;
17361;SDS011;8798;51.938;4.348;2023-06-14T09:31:11;5.68;;;2.25;;
17361;SDS011;8798;51.938;4.348;2023-06-14T09:33:42;6.13;;;2.10;;
17361;SDS011;8798;51.938;4.348;2023-06-14T09:36:16;4.68;;;2.38;;
17361;SDS011;8798;51.938;4.348;2023-06-14T09:38:55;3.97;;;2.17;;
17361;SDS011;8798;51.938;4.348;2023-06-14T09:41:30;5.05;;;2.28;;
17361;SDS011;8798;51.938;4.348;2023-06-14T09:44:00;4.03;;;2.13;;
17361;SDS011;8798;51.938;4.348;2023-06-14T09:46:43;4.97;;;2.20;;
17361;SDS011;8798;51.938;4.348;2023-06-14T09:49:14;3.00;;;2.13;;
17361;SDS011;8798;51.938;4.348;2023-06-14T09:51:45;5.00;;;2.05;;
17361;SDS011;8798;51.938;4.348;2023-06-14T09:54:20;3.42;;;2.15;;
17361;SDS011;8798;51.938;4.348;2023-06-14T09:56:59;3.75;;;2.22;;
17361;SDS011;8798;51.938;4.348;2023-06-14T09:59:30;3.45;;;2.05;;
17361;SDS011;8798;51.938;4.348;2023-06-14T10:02:10;5.55;;;2.15;;
17361;SDS011;8798;51.938;4.348;2023-06-14T10:04:50;5.68;;;1.80;;
17361;SDS011;8798;51.938;4.348;2023-06-14T10:07:27;6.43;;;2.15;;
17361;SDS011;8798;51.938;4.348;2023-06-14T10:09:59;4.60;;;1.90;;
17361;SDS011;8798;51.938;4.348;2023-06-14T10:12:29;5.03;;;1.90;;
17361;SDS011;8798;51.938;4.348;2023-06-14T10:14:57;7.40;;;2.10;;
17361;SDS011;8798;51.938;4.348;2023-06-14T10:17:33;2.85;;;1.88;;
17361;SDS011;8798;51.938;4.348;2023-06-14T10:20:14;2.08;;;1.80;;
17361;SDS011;8798;51.938;4.348;2023-06-14T10:23:02;2.70;;;1.65;;
17361;SDS011;8798;51.938;4.348;2023-06-14T10:25:35;3.83;;;1.58;;
17361;SDS011;8798;51.938;4.348;2023-06-14T10:28:18;2.58;;;1.52;;
17361;SDS011;8798;51.938;4.348;2023-06-14T10:31:02;3.25;;;1.63;;
17361;SDS011;8798;51.938;4.348;2023-06-14T10:33:33;4.30;;;1.67;;
17361;SDS011;8798;51.938;4.348;2023-06-14T10:39:00;2.70;;;1.45;;
17361;SDS011;8798;51.938;4.348;2023-06-14T10:41:34;1.80;;;1.40;;
17361;SDS011;8798;51.938;4.348;2023-06-14T10:47:07;6.95;;;1.73;;
17361;SDS011;8798;51.938;4.348;2023-06-14T10:49:53;1.95;;;1.55;;
17361;SDS011;8798;51.938;4.348;2023-06-14T10:52:27;5.07;;;1.58;;
17361;SDS011;8798;51.938;4.348;2023-06-14T10:54:59;2.83;;;1.70;;
17361;SDS011;8798;51.938;4.348;2023-06-14T10:57:33;2.17;;;1.38;;
17361;SDS011;8798;51.938;4.348;2023-06-14T11:00:19;7.18;;;1.88;;
17361;SDS011;8798;51.938;4.348;2023-06-14T11:02:52;4.68;;;1.40;;
17361;SDS011;8798;51.938;4.348;2023-06-14T11:05:52;3.25;;;1.60;;
17361;SDS011;8798;51.938;4.348;2023-06-14T11:11:31;1.52;;;1.20;;
17361;SDS011;8798;51.938;4.348;2023-06-14T11:14:03;1.90;;;1.42;;
17361;SDS011;8798;51.938;4.348;2023-06-14T11:16:32;2.13;;;1.48;;
17361;SDS011;8798;51.938;4.348;2023-06-14T11:19:02;1.63;;;1.30;;
17361;SDS011;8798;51.938;4.348;2023-06-14T11:21:40;1.90;;;1.23;;
17361;SDS011;8798;51.938;4.348;2023-06-14T11:24:10;1.42;;;1.20;;
17361;SDS011;8798;51.938;4.348;2023-06-14T11:26:39;3.30;;;1.30;;
17361;SDS011;8798;51.938;4.348;2023-06-14T11:29:10;2.03;;;1.20;;
17361;SDS011;8798;51.938;4.348;2023-06-14T11:31:42;0.93;;;0.82;;
17361;SDS011;8798;51.938;4.348;2023-06-14T11:34:16;4.97;;;1.70;;
17361;SDS011;8798;51.938;4.348;2023-06-14T11:36:49;3.03;;;1.00;;
17361;SDS011;8798;51.938;4.348;2023-06-14T11:39:21;1.65;;;1.23;;
17361;SDS011;8798;51.938;4.348;2023-06-14T11:42:00;3.25;;;1.25;;
17361;SDS011;8798;51.938;4.348;2023-06-14T11:44:29;2.55;;;1.23;;
17361;SDS011;8798;51.938;4.348;2023-06-14T11:47:03;1.90;;;1.15;;
17361;SDS011;8798;51.938;4.348;2023-06-14T11:49:35;5.88;;;1.30;;
17361;SDS011;8798;51.938;4.348;2023-06-14T11:52:10;1.60;;;1.20;;
17361;SDS011;8798;51.938;4.348;2023-06-14T11:54:39;2.03;;;1.25;;
17361;SDS011;8798;51.938;4.348;2023-06-14T11:57:10;1.90;;;1.20;;
17361;SDS011;8798;51.938;4.348;2023-06-14T11:59:38;3.25;;;1.27;;
17361;SDS011;8798;51.938;4.348;2023-06-14T12:02:08;1.75;;;1.20;;
17361;SDS011;8798;51.938;4.348;2023-06-14T12:04:36;1.80;;;1.10;;
17361;SDS011;8798;51.938;4.348;2023-06-14T12:07:10;3.08;;;1.38;;
17361;SDS011;8798;51.938;4.348;2023-06-14T12:10:03;2.30;;;1.20;;
17361;SDS011;8798;51.938;4.348;2023-06-14T12:12:35;2.75;;;1.08;;
17361;SDS011;8798;51.938;4.348;2023-06-14T12:15:05;2.90;;;1.40;;
17361;SDS011;8798;51.938;4.348;2023-06-14T12:17:38;2.55;;;1.02;;
17361;SDS011;8798;51.938;4.348;2023-06-14T12:20:10;1.30;;;0.90;;
17361;SDS011;8798;51.938;4.348;2023-06-14T12:22:54;3.17;;;1.02;;
17361;SDS011;8798;51.938;4.348;2023-06-14T12:25:25;2.15;;;1.02;;
17361;SDS011;8798;51.938;4.348;2023-06-14T12:27:59;1.33;;;1.02;;
17361;SDS011;8798;51.938;4.348;2023-06-14T12:30:32;1.88;;;1.30;;
17361;SDS011;8798;51.938;4.348;2023-06-14T12:33:08;5.45;;;1.80;;
17361;SDS011;8798;51.938;4.348;2023-06-14T12:35:38;1.40;;;1.02;;
17361;SDS011;8798;51.938;4.348;2023-06-14T12:38:10;1.92;;;1.20;;
17361;SDS011;8798;51.938;4.348;2023-06-14T12:40:38;1.48;;;0.95;;
17361;SDS011;8798;51.938;4.348;2023-06-14T12:43:08;3.55;;;1.10;;
17361;SDS011;8798;51.938;4.348;2023-06-14T12:45:36;3.05;;;1.02;;
17361;SDS011;8798;51.938;4.348;2023-06-14T12:48:08;2.90;;;1.30;;
17361;SDS011;8798;51.938;4.348;2023-06-14T12:50:36;1.42;;;1.33;;
17361;SDS011;8798;51.938;4.348;2023-06-14T12:53:05;2.65;;;1.10;;
17361;SDS011;8798;51.938;4.348;2023-06-14T12:55:35;3.25;;;1.15;;
17361;SDS011;8798;51.938;4.348;2023-06-14T12:58:03;2.00;;;1.27;;
17361;SDS011;8798;51.938;4.348;2023-06-14T13:00:31;2.92;;;1.20;;
17361;SDS011;8798;51.938;4.348;2023-06-14T13:03:01;1.58;;;0.90;;
17361;SDS011;8798;51.938;4.348;2023-06-14T13:05:30;1.20;;;1.00;;
17361;SDS011;8798;51.938;4.348;2023-06-14T13:08:00;1.30;;;1.08;;
17361;SDS011;8798;51.938;4.348;2023-06-14T13:10:28;2.67;;;1.00;;
17361;SDS011;8798;51.938;4.348;2023-06-14T13:12:58;3.85;;;1.10;;
17361;SDS011;8798;51.938;4.348;2023-06-14T13:15:27;3.45;;;1.17;;
17361;SDS011;8798;51.938;4.348;2023-06-14T13:17:57;2.97;;;1.55;;
17361;SDS011;8798;51.938;4.348;2023-06-14T13:20:25;1.48;;;1.27;;
17361;SDS011;8798;51.938;4.348;2023-06-14T13:22:53;2.45;;;1.20;;
17361;SDS011;8798;51.938;4.348;2023-06-14T13:25:22;3.90;;;1.25;;
17361;SDS011;8798;51.938;4.348;2023-06-14T13:27:52;1.70;;;1.30;;
17361;SDS011;8798;51.938;4.348;2023-06-14T13:30:22;1.80;;;1.40;;
17361;SDS011;8798;51.938;4.348;2023-06-14T13:32:50;1.80;;;1.10;;
17361;SDS011;8798;51.938;4.348;2023-06-14T13:35:19;1.33;;;1.10;;
17361;SDS011;8798;51.938;4.348;2023-06-14T13:37:47;2.13;;;1.10;;
17361;SDS011;8798;51.938;4.348;2023-06-14T13:40:15;2.13;;;1.30;;
17361;SDS011;8798;51.938;4.348;2023-06-14T13:42:45;2.38;;;1.30;;
17361;SDS011;8798;51.938;4.348;2023-06-14T13:45:15;2.22;;;1.10;;
17361;SDS011;8798;51.938;4.348;2023-06-14T13:47:44;4.93;;;1.80;;
17361;SDS011;8798;51.938;4.348;2023-06-14T13:50:15;3.70;;;1.20;;
17361;SDS011;8798;51.938;4.348;2023-06-14T13:52:43;1.67;;;1.15;;
17361;SDS011;8798;51.938;4.348;2023-06-14T13:55:11;4.03;;;1.05;;
17361;SDS011;8798;51.938;4.348;2023-06-14T13:57:40;4.38;;;1.27;;
17361;SDS011;8798;51.938;4.348;2023-06-14T14:00:10;2.17;;;1.10;;
17361;SDS011;8798;51.938;4.348;2023-06-14T14:02:40;1.77;;;1.27;;
17361;SDS011;8798;51.938;4.348;2023-06-14T14:05:10;3.22;;;1.20;;
17361;SDS011;8798;51.938;4.348;2023-06-14T14:07:38;1.55;;;1.10;;
17361;SDS011;8798;51.938;4.348;2023-06-14T14:10:07;2.90;;;1.20;;
17361;SDS011;8798;51.938;4.348;2023-06-14T14:12:35;1.27;;;1.08;;
17361;SDS011;8798;51.938;4.348;2023-06-14T14:15:09;2.17;;;1.08;;
17361;SDS011;8798;51.938;4.348;2023-06-14T14:17:41;1.83;;;1.08;;
17361;SDS011;8798;51.938;4.348;2023-06-14T14:20:11;2.58;;;1.20;;
17361;SDS011;8798;51.938;4.348;2023-06-14T14:22:44;1.38;;;1.00;;
17361;SDS011;8798;51.938;4.348;2023-06-14T14:25:13;2.00;;;1.20;;
17361;SDS011;8798;51.938;4.348;2023-06-14T14:27:42;1.75;;;1.17;;
17361;SDS011;8798;51.938;4.348;2023-06-14T14:30:10;1.85;;;1.13;;
17361;SDS011;8798;51.938;4.348;2023-06-14T14:32:41;1.75;;;1.00;;
17361;SDS011;8798;51.938;4.348;2023-06-14T14:35:11;1.20;;;1.10;;
17361;SDS011;8798;51.938;4.348;2023-06-14T14:37:39;1.88;;;1.23;;
17361;SDS011;8798;51.938;4.348;2023-06-14T14:40:10;4.05;;;1.33;;
17361;SDS011;8798;51.938;4.348;2023-06-14T14:42:40;1.40;;;1.20;;
17361;SDS011;8798;51.938;4.348;2023-06-14T14:45:08;2.13;;;1.30;;
17361;SDS011;8798;51.938;4.348;2023-06-14T14:47:37;1.45;;;1.10;;
17361;SDS011;8798;51.938;4.348;2023-06-14T14:50:06;1.38;;;1.15;;
17361;SDS011;8798;51.938;4.348;2023-06-14T14:52:43;2.10;;;1.00;;
17361;SDS011;8798;51.938;4.348;2023-06-14T14:55:15;1.63;;;1.17;;
17361;SDS011;8798;51.938;4.348;2023-06-14T14:57:46;3.22;;;1.65;;
17361;SDS011;8798;51.938;4.348;2023-06-14T15:00:17;1.88;;;1.23;;
17361;SDS011;8798;51.938;4.348;2023-06-14T15:02:48;2.40;;;1.40;;
17361;SDS011;8798;51.938;4.348;2023-06-14T15:05:20;1.90;;;1.27;;
17361;SDS011;8798;51.938;4.348;2023-06-14T15:07:49;2.50;;;1.17;;
17361;SDS011;8798;51.938;4.348;2023-06-14T15:10:20;1.90;;;1.42;;
17361;SDS011;8798;51.938;4.348;2023-06-14T15:12:50;2.35;;;1.38;;
17361;SDS011;8798;51.938;4.348;2023-06-14T15:15:18;4.15;;;1.55;;
17361;SDS011;8798;51.938;4.348;2023-06-14T15:17:47;1.50;;;1.20;;
17361;SDS011;8798;51.938;4.348;2023-06-14T15:20:15;1.73;;;1.50;;
17361;SDS011;8798;51.938;4.348;2023-06-14T15:22:44;2.17;;;1.30;;
17361;SDS011;8798;51.938;4.348;2023-06-14T15:25:17;1.58;;;1.20;;
17361;SDS011;8798;51.938;4.348;2023-06-14T15:27:49;1.35;;;1.23;;
17361;SDS011;8798;51.938;4.348;2023-06-14T15:30:19;3.95;;;1.15;;
17361;SDS011;8798;51.938;4.348;2023-06-14T15:32:55;2.20;;;1.17;;
17361;SDS011;8798;51.938;4.348;2023-06-14T15:35:25;4.32;;;1.90;;
17361;SDS011;8798;51.938;4.348;2023-06-14T15:37:57;2.03;;;1.23;;